sensor_id;sensor_type;location;lat;lon;timestamp;pressure;altitude;pressure_sealevel;temperature;humidity
38054;BME280;23859;50.672;7.164;2022-09-01T00:02:08;101103.97;;;19.91;57.76
38054;BME280;23859;50.672;7.164;2022-09-01T00:04:36;101101.00;;;19.86;57.74
38054;BME280;23859;50.672;7.164;2022-09-01T00:07:05;101097.63;;;19.84;58.26
38054;BME280;23859;50.672;7.164;2022-09-01T00:09:31;101094.91;;;19.69;58.81
38054;BME280;23859;50.672;7.164;2022-09-01T00:11:57;101098.69;;;19.60;58.80
38054;BME280;23859;50.672;7.164;2022-09-01T00:14:28;101095.00;;;19.61;58.93
38054;BME280;23859;50.672;7.164;2022-09-01T00:16:56;101093.59;;;19.65;58.49
38054;BME280;23859;50.672;7.164;2022-09-01T00:19:23;101097.25;;;19.72;58.44
38054;BME280;23859;50.672;7.164;2022-09-01T00:21:49;101105.47;;;19.56;59.30
38054;BME280;23859;50.672;7.164;2022-09-01T00:24:17;101095.75;;;19.47;59.44
38054;BME280;23859;50.672;7.164;2022-09-01T00:26:44;101106.03;;;19.52;59.68
38054;BME280;23859;50.672;7.164;2022-09-01T00:29:10;101105.56;;;19.26;60.63
38054;BME280;23859;50.672;7.164;2022-09-01T00:31:37;101116.81;;;18.99;62.20
38054;BME280;23859;50.672;7.164;2022-09-01T00:34:03;101111.63;;;18.90;62.75
38054;BME280;23859;50.672;7.164;2022-09-01T00:36:29;101112.13;;;18.93;62.65
38054;BME280;23859;50.672;7.164;2022-09-01T00:38:56;101108.25;;;18.96;62.39
38054;BME280;23859;50.672;7.164;2022-09-01T00:41:25;101108.16;;;18.81;64.00
38054;BME280;23859;50.672;7.164;2022-09-01T00:43:57;101109.91;;;18.67;65.36
38054;BME280;23859;50.672;7.164;2022-09-01T00:46:30;101116.03;;;18.53;64.90
38054;BME280;23859;50.672;7.164;2022-09-01T00:49:13;101111.16;;;18.48;66.80
38054;BME280;23859;50.672;7.164;2022-09-01T00:51:43;101118.13;;;18.35;66.24
38054;BME280;23859;50.672;7.164;2022-09-01T00:54:14;101118.47;;;18.32;66.67
38054;BME280;23859;50.672;7.164;2022-09-01T00:56:42;101122.50;;;18.36;67.86
38054;BME280;23859;50.672;7.164;2022-09-01T00:59:09;101124.38;;;18.73;66.15
38054;BME280;23859;50.672;7.164;2022-09-01T01:01:37;101121.19;;;18.70;65.85
38054;BME280;23859;50.672;7.164;2022-09-01T01:04:05;101106.22;;;18.68;65.65
38054;BME280;23859;50.672;7.164;2022-09-01T01:06:31;101110.69;;;18.45;66.37
38054;BME280;23859;50.672;7.164;2022-09-01T01:08:58;101108.34;;;18.34;67.25
38054;BME280;23859;50.672;7.164;2022-09-01T01:11:30;101121.50;;;18.37;68.49
38054;BME280;23859;50.672;7.164;2022-09-01T01:14:16;101120.13;;;18.33;68.31
38054;BME280;23859;50.672;7.164;2022-09-01T01:16:47;101118.50;;;18.24;68.55
38054;BME280;23859;50.672;7.164;2022-09-01T01:22:26;101122.50;;;18.28;68.64
38054;BME280;23859;50.672;7.164;2022-09-01T01:25:12;101124.50;;;18.42;67.29
38054;BME280;23859;50.672;7.164;2022-09-01T01:27:38;101119.75;;;18.44;67.50
38054;BME280;23859;50.672;7.164;2022-09-01T01:30:09;101114.75;;;18.33;68.56
38054;BME280;23859;50.672;7.164;2022-09-01T01:32:37;101124.53;;;18.26;69.07
38054;BME280;23859;50.672;7.164;2022-09-01T01:35:10;101117.63;;;18.15;70.26
38054;BME280;23859;50.672;7.164;2022-09-01T01:37:43;101115.97;;;18.06;69.37
38054;BME280;23859;50.672;7.164;2022-09-01T01:40:12;101116.47;;;18.10;70.94
38054;BME280;23859;50.672;7.164;2022-09-01T01:42:46;101114.28;;;17.98;70.96
38054;BME280;23859;50.672;7.164;2022-09-01T01:45:14;101118.16;;;18.03;71.11
38054;BME280;23859;50.672;7.164;2022-09-01T01:47:46;101116.47;;;18.02;70.86
38054;BME280;23859;50.672;7.164;2022-09-01T01:50:22;101122.50;;;18.12;70.36
38054;BME280;23859;50.672;7.164;2022-09-01T01:52:49;101123.91;;;18.00;70.76
38054;BME280;23859;50.672;7.164;2022-09-01T01:55:15;101111.97;;;17.95;71.15
38054;BME280;23859;50.672;7.164;2022-09-01T01:57:45;101121.22;;;17.84;71.17
38054;BME280;23859;50.672;7.164;2022-09-01T02:00:17;101120.53;;;17.74;70.31
38054;BME280;23859;50.672;7.164;2022-09-01T02:02:45;101122.41;;;17.66;70.36
38054;BME280;23859;50.672;7.164;2022-09-01T02:07:53;101122.91;;;17.53;71.27
38054;BME280;23859;50.672;7.164;2022-09-01T02:10:25;101120.91;;;17.39;71.36
38054;BME280;23859;50.672;7.164;2022-09-01T02:12:52;101121.56;;;17.34;72.86
38054;BME280;23859;50.672;7.164;2022-09-01T02:15:19;101119.16;;;17.23;73.56
38054;BME280;23859;50.672;7.164;2022-09-01T02:17:45;101120.06;;;17.31;74.07
38054;BME280;23859;50.672;7.164;2022-09-01T02:20:12;101121.16;;;17.21;74.30
38054;BME280;23859;50.672;7.164;2022-09-01T02:22:40;101120.47;;;17.11;74.91
38054;BME280;23859;50.672;7.164;2022-09-01T02:25:10;101126.16;;;17.00;75.35
38054;BME280;23859;50.672;7.164;2022-09-01T02:27:36;101124.00;;;16.95;75.04
38054;BME280;23859;50.672;7.164;2022-09-01T02:30:05;101117.41;;;16.90;75.75
38054;BME280;23859;50.672;7.164;2022-09-01T02:32:35;101124.78;;;16.88;76.17
38054;BME280;23859;50.672;7.164;2022-09-01T02:35:02;101122.91;;;16.80;76.17
38054;BME280;23859;50.672;7.164;2022-09-01T02:37:32;101127.47;;;16.80;78.00
38054;BME280;23859;50.672;7.164;2022-09-01T02:39:59;101078.00;;;16.41;77.56
38054;BME280;23859;50.672;7.164;2022-09-01T02:42:25;101120.88;;;16.67;78.68
38054;BME280;23859;50.672;7.164;2022-09-01T02:44:55;101123.38;;;16.60;78.37
38054;BME280;23859;50.672;7.164;2022-09-01T02:47:22;101119.53;;;16.63;78.92
38054;BME280;23859;50.672;7.164;2022-09-01T02:49:52;101120.03;;;16.66;78.66
38054;BME280;23859;50.672;7.164;2022-09-01T02:52:19;101115.31;;;16.60;79.67
38054;BME280;23859;50.672;7.164;2022-09-01T02:54:46;101131.72;;;16.57;81.51
38054;BME280;23859;50.672;7.164;2022-09-01T02:57:16;101119.63;;;16.53;81.24
38054;BME280;23859;50.672;7.164;2022-09-01T02:59:42;101127.50;;;16.47;83.05
38054;BME280;23859;50.672;7.164;2022-09-01T03:02:09;101121.91;;;16.32;82.71
38054;BME280;23859;50.672;7.164;2022-09-01T03:04:36;101125.66;;;16.22;82.61
38054;BME280;23859;50.672;7.164;2022-09-01T03:07:04;101123.34;;;16.27;83.69
38054;BME280;23859;50.672;7.164;2022-09-01T03:09:30;101120.53;;;16.28;83.35
38054;BME280;23859;50.672;7.164;2022-09-01T03:11:57;101119.50;;;16.29;83.82
38054;BME280;23859;50.672;7.164;2022-09-01T03:14:25;101118.28;;;16.24;83.21
38054;BME280;23859;50.672;7.164;2022-09-01T03:16:51;101119.25;;;16.15;85.01
38054;BME280;23859;50.672;7.164;2022-09-01T03:19:18;101121.72;;;16.08;85.93
38054;BME280;23859;50.672;7.164;2022-09-01T03:21:44;101122.59;;;16.17;85.11
38054;BME280;23859;50.672;7.164;2022-09-01T03:24:13;101122.41;;;16.10;85.86
38054;BME280;23859;50.672;7.164;2022-09-01T03:26:40;101132.59;;;16.07;85.67
38054;BME280;23859;50.672;7.164;2022-09-01T03:29:07;101132.88;;;15.96;86.10
38054;BME280;23859;50.672;7.164;2022-09-01T03:31:34;101113.81;;;15.82;86.73
38054;BME280;23859;50.672;7.164;2022-09-01T03:34:01;101122.66;;;15.74;87.08
38054;BME280;23859;50.672;7.164;2022-09-01T03:36:28;101122.28;;;15.69;87.65
38054;BME280;23859;50.672;7.164;2022-09-01T03:38:56;101113.94;;;15.55;86.98
38054;BME280;23859;50.672;7.164;2022-09-01T03:41:25;101126.75;;;15.43;87.35
38054;BME280;23859;50.672;7.164;2022-09-01T03:43:53;101120.50;;;15.35;86.19
38054;BME280;23859;50.672;7.164;2022-09-01T03:46:21;101116.44;;;15.31;87.26
38054;BME280;23859;50.672;7.164;2022-09-01T03:48:48;101116.13;;;15.34;88.56
38054;BME280;23859;50.672;7.164;2022-09-01T03:51:17;101115.06;;;15.27;87.86
38054;BME280;23859;50.672;7.164;2022-09-01T03:53:43;101114.53;;;15.24;88.88
38054;BME280;23859;50.672;7.164;2022-09-01T03:56:10;101113.38;;;15.26;90.12
38054;BME280;23859;50.672;7.164;2022-09-01T03:58:38;101110.88;;;15.25;88.78
38054;BME280;23859;50.672;7.164;2022-09-01T04:01:08;101115.66;;;15.21;88.69
38054;BME280;23859;50.672;7.164;2022-09-01T04:03:38;101116.63;;;15.20;88.26
38054;BME280;23859;50.672;7.164;2022-09-01T04:06:07;101120.53;;;15.08;89.79
38054;BME280;23859;50.672;7.164;2022-09-01T04:08:34;101112.13;;;15.03;89.13
38054;BME280;23859;50.672;7.164;2022-09-01T04:11:09;101112.44;;;15.00;89.59
38054;BME280;23859;50.672;7.164;2022-09-01T04:13:37;101024.00;;;14.58;90.99
38054;BME280;23859;50.672;7.164;2022-09-01T04:16:05;101122.22;;;15.09;91.21
38054;BME280;23859;50.672;7.164;2022-09-01T04:18:35;101119.31;;;15.03;92.55
38054;BME280;23859;50.672;7.164;2022-09-01T04:21:01;101123.44;;;14.97;91.77
38054;BME280;23859;50.672;7.164;2022-09-01T04:23:32;101128.06;;;14.95;91.96
38054;BME280;23859;50.672;7.164;2022-09-01T04:26:11;101130.25;;;14.92;92.79
38054;BME280;23859;50.672;7.164;2022-09-01T04:28:45;101122.97;;;14.84;92.98
38054;BME280;23859;50.672;7.164;2022-09-01T04:31:18;101126.09;;;14.80;92.73
38054;BME280;23859;50.672;7.164;2022-09-01T04:33:47;101127.38;;;14.76;92.52
38054;BME280;23859;50.672;7.164;2022-09-01T04:36:19;101127.50;;;14.74;93.64
38054;BME280;23859;50.672;7.164;2022-09-01T04:38:49;101134.75;;;14.64;93.63
38054;BME280;23859;50.672;7.164;2022-09-01T04:41:15;101121.38;;;14.64;94.20
38054;BME280;23859;50.672;7.164;2022-09-01T04:43:43;101131.41;;;14.63;94.13
38054;BME280;23859;50.672;7.164;2022-09-01T04:46:10;101132.22;;;14.63;94.39
38054;BME280;23859;50.672;7.164;2022-09-01T04:48:39;101126.91;;;14.80;93.29
38054;BME280;23859;50.672;7.164;2022-09-01T04:51:08;101129.91;;;14.77;94.43
38054;BME280;23859;50.672;7.164;2022-09-01T04:53:36;101130.53;;;14.89;93.04
38054;BME280;23859;50.672;7.164;2022-09-01T04:56:04;101134.88;;;14.72;93.51
38054;BME280;23859;50.672;7.164;2022-09-01T04:58:30;101136.59;;;14.64;93.71
38054;BME280;23859;50.672;7.164;2022-09-01T05:00:56;101142.09;;;14.63;94.72
38054;BME280;23859;50.672;7.164;2022-09-01T05:03:25;101137.53;;;14.46;94.73
38054;BME280;23859;50.672;7.164;2022-09-01T05:05:52;101135.41;;;14.49;95.64
38054;BME280;23859;50.672;7.164;2022-09-01T05:08:24;101133.19;;;14.45;95.64
38054;BME280;23859;50.672;7.164;2022-09-01T05:10:52;101132.75;;;14.49;95.54
38054;BME280;23859;50.672;7.164;2022-09-01T05:13:20;101136.25;;;14.50;94.97
38054;BME280;23859;50.672;7.164;2022-09-01T05:16:00;101131.00;;;14.58;95.75
38054;BME280;23859;50.672;7.164;2022-09-01T05:18:27;101128.19;;;14.59;95.81
38054;BME280;23859;50.672;7.164;2022-09-01T05:20:54;101124.75;;;14.66;95.06
38054;BME280;23859;50.672;7.164;2022-09-01T05:23:21;101135.69;;;14.73;94.75
38054;BME280;23859;50.672;7.164;2022-09-01T05:25:50;101131.38;;;14.89;95.12
38054;BME280;23859;50.672;7.164;2022-09-01T05:28:20;101134.91;;;15.07;92.96
38054;BME280;23859;50.672;7.164;2022-09-01T05:30:50;101137.59;;;15.07;92.16
38054;BME280;23859;50.672;7.164;2022-09-01T05:33:19;101126.44;;;15.12;92.54
38054;BME280;23859;50.672;7.164;2022-09-01T05:35:57;101127.56;;;15.09;92.10
38054;BME280;23859;50.672;7.164;2022-09-01T05:38:27;101132.59;;;15.12;92.85
38054;BME280;23859;50.672;7.164;2022-09-01T05:41:01;101134.50;;;15.29;92.56
38054;BME280;23859;50.672;7.164;2022-09-01T05:43:30;101135.84;;;15.33;91.93
38054;BME280;23859;50.672;7.164;2022-09-01T05:45:59;101133.88;;;15.35;91.68
38054;BME280;23859;50.672;7.164;2022-09-01T05:48:26;101138.63;;;15.41;90.48
38054;BME280;23859;50.672;7.164;2022-09-01T05:50:56;101142.06;;;15.51;90.24
38054;BME280;23859;50.672;7.164;2022-09-01T05:53:28;101142.16;;;15.59;90.65
38054;BME280;23859;50.672;7.164;2022-09-01T05:55:55;101145.25;;;15.72;87.74
38054;BME280;23859;50.672;7.164;2022-09-01T05:58:26;101140.25;;;15.77;86.94
38054;BME280;23859;50.672;7.164;2022-09-01T06:00:54;101146.38;;;15.87;86.47
38054;BME280;23859;50.672;7.164;2022-09-01T06:03:23;101139.56;;;15.92;86.06
38054;BME280;23859;50.672;7.164;2022-09-01T06:05:49;101137.56;;;15.94;85.79
38054;BME280;23859;50.672;7.164;2022-09-01T06:08:20;101136.59;;;16.03;86.10
38054;BME280;23859;50.672;7.164;2022-09-01T06:10:48;101139.84;;;16.14;86.13
38054;BME280;23859;50.672;7.164;2022-09-01T06:13:16;101134.56;;;16.22;86.76
38054;BME280;23859;50.672;7.164;2022-09-01T06:15:44;101145.03;;;16.33;84.73
38054;BME280;23859;50.672;7.164;2022-09-01T06:18:11;101139.06;;;16.47;84.80
38054;BME280;23859;50.672;7.164;2022-09-01T06:20:39;101141.00;;;16.63;83.69
38054;BME280;23859;50.672;7.164;2022-09-01T06:23:06;101139.88;;;16.81;83.49
38054;BME280;23859;50.672;7.164;2022-09-01T06:25:35;101136.09;;;16.99;80.66
38054;BME280;23859;50.672;7.164;2022-09-01T06:28:01;101140.63;;;17.07;77.90
38054;BME280;23859;50.672;7.164;2022-09-01T06:30:29;101138.97;;;17.22;77.73
38054;BME280;23859;50.672;7.164;2022-09-01T06:32:55;101145.75;;;17.41;77.82
38054;BME280;23859;50.672;7.164;2022-09-01T06:35:23;101142.56;;;17.62;76.73
38054;BME280;23859;50.672;7.164;2022-09-01T06:37:55;101146.13;;;17.62;75.94
38054;BME280;23859;50.672;7.164;2022-09-01T06:40:23;101139.69;;;17.95;75.56
38054;BME280;23859;50.672;7.164;2022-09-01T06:42:51;101140.69;;;18.02;74.83
38054;BME280;23859;50.672;7.164;2022-09-01T06:45:23;101144.03;;;18.12;71.43
38054;BME280;23859;50.672;7.164;2022-09-01T06:47:50;101144.34;;;18.33;71.60
38054;BME280;23859;50.672;7.164;2022-09-01T06:50:19;101150.78;;;18.24;71.73
38054;BME280;23859;50.672;7.164;2022-09-01T06:52:47;101138.84;;;18.10;70.51
38054;BME280;23859;50.672;7.164;2022-09-01T06:55:15;101146.09;;;18.26;70.83
38054;BME280;23859;50.672;7.164;2022-09-01T06:57:42;101150.47;;;18.27;70.87
38054;BME280;23859;50.672;7.164;2022-09-01T07:00:16;101153.09;;;18.43;69.50
38054;BME280;23859;50.672;7.164;2022-09-01T07:02:44;101150.09;;;18.30;69.25
38054;BME280;23859;50.672;7.164;2022-09-01T07:05:11;101151.56;;;18.40;69.77
38054;BME280;23859;50.672;7.164;2022-09-01T07:07:39;101155.06;;;18.49;68.89
38054;BME280;23859;50.672;7.164;2022-09-01T07:10:06;101155.91;;;18.57;68.76
38054;BME280;23859;50.672;7.164;2022-09-01T07:12:32;101148.81;;;18.64;68.64
38054;BME280;23859;50.672;7.164;2022-09-01T07:14:58;101146.97;;;18.95;67.44
38054;BME280;23859;50.672;7.164;2022-09-01T07:17:26;101145.16;;;19.26;65.75
38054;BME280;23859;50.672;7.164;2022-09-01T07:19:54;101152.16;;;19.12;66.61
38054;BME280;23859;50.672;7.164;2022-09-01T07:22:20;101139.88;;;19.32;67.91
38054;BME280;23859;50.672;7.164;2022-09-01T07:24:46;101135.22;;;19.71;66.36
38054;BME280;23859;50.672;7.164;2022-09-01T07:27:13;101142.88;;;19.82;66.83
38054;BME280;23859;50.672;7.164;2022-09-01T07:29:39;101139.03;;;19.76;64.18
38054;BME280;23859;50.672;7.164;2022-09-01T07:32:05;101140.94;;;19.68;64.23
38054;BME280;23859;50.672;7.164;2022-09-01T07:34:31;101146.47;;;19.52;64.85
38054;BME280;23859;50.672;7.164;2022-09-01T07:37:00;101137.81;;;19.79;64.61
38054;BME280;23859;50.672;7.164;2022-09-01T07:39:26;101147.50;;;19.88;65.07
38054;BME280;23859;50.672;7.164;2022-09-01T07:41:52;101142.56;;;19.99;61.32
38054;BME280;23859;50.672;7.164;2022-09-01T07:44:18;101148.00;;;20.13;61.40
38054;BME280;23859;50.672;7.164;2022-09-01T07:46:45;101145.16;;;19.93;62.37
38054;BME280;23859;50.672;7.164;2022-09-01T07:49:16;101144.41;;;19.99;63.60
38054;BME280;23859;50.672;7.164;2022-09-01T07:51:43;101143.13;;;19.72;63.72
38054;BME280;23859;50.672;7.164;2022-09-01T07:54:10;101138.44;;;19.66;63.25
38054;BME280;23859;50.672;7.164;2022-09-01T07:56:38;101137.47;;;20.18;62.43
38054;BME280;23859;50.672;7.164;2022-09-01T07:59:06;101134.94;;;20.03;62.04
38054;BME280;23859;50.672;7.164;2022-09-01T08:01:33;101138.00;;;19.77;62.91
38054;BME280;23859;50.672;7.164;2022-09-01T08:03:59;101135.59;;;20.19;62.50
38054;BME280;23859;50.672;7.164;2022-09-01T08:06:28;101135.63;;;20.62;61.69
38054;BME280;23859;50.672;7.164;2022-09-01T08:08:56;101139.72;;;20.87;60.26
38054;BME280;23859;50.672;7.164;2022-09-01T08:11:28;101130.09;;;21.34;58.35
38054;BME280;23859;50.672;7.164;2022-09-01T08:13:56;101136.31;;;21.35;57.72
38054;BME280;23859;50.672;7.164;2022-09-01T08:16:24;101131.84;;;21.42;57.99
38054;BME280;23859;50.672;7.164;2022-09-01T08:18:50;101129.91;;;22.59;54.11
38054;BME280;23859;50.672;7.164;2022-09-01T08:21:18;101142.75;;;22.84;53.38
38054;BME280;23859;50.672;7.164;2022-09-01T08:23:47;101138.81;;;22.93;52.97
38054;BME280;23859;50.672;7.164;2022-09-01T08:26:15;101146.41;;;22.64;53.54
38054;BME280;23859;50.672;7.164;2022-09-01T08:28:41;101146.06;;;22.19;56.07
38054;BME280;23859;50.672;7.164;2022-09-01T08:31:13;101136.97;;;21.99;55.61
38054;BME280;23859;50.672;7.164;2022-09-01T08:33:41;101141.97;;;21.75;56.17
38054;BME280;23859;50.672;7.164;2022-09-01T08:36:10;101149.59;;;21.65;56.36
38054;BME280;23859;50.672;7.164;2022-09-01T08:38:37;101138.81;;;21.71;57.55
38054;BME280;23859;50.672;7.164;2022-09-01T08:41:05;101133.41;;;22.93;53.93
38054;BME280;23859;50.672;7.164;2022-09-01T08:44:02;101132.09;;;22.43;54.44
38054;BME280;23859;50.672;7.164;2022-09-01T08:46:38;101139.50;;;23.02;53.12
38054;BME280;23859;50.672;7.164;2022-09-01T08:49:15;101124.44;;;25.06;49.32
38054;BME280;23859;50.672;7.164;2022-09-01T08:57:24;101126.13;;;25.07;47.07
38054;BME280;23859;50.672;7.164;2022-09-01T08:59:54;101124.47;;;24.11;48.64
38054;BME280;23859;50.672;7.164;2022-09-01T09:05:06;101114.78;;;23.44;50.54
38054;BME280;23859;50.672;7.164;2022-09-01T09:08:06;101114.22;;;23.61;51.11
38054;BME280;23859;50.672;7.164;2022-09-01T09:10:55;101118.56;;;23.62;49.42
38054;BME280;23859;50.672;7.164;2022-09-01T09:16:31;101116.63;;;23.11;49.56
38054;BME280;23859;50.672;7.164;2022-09-01T09:19:04;101116.63;;;23.11;50.35
38054;BME280;23859;50.672;7.164;2022-09-01T09:21:37;101116.41;;;23.25;49.96
38054;BME280;23859;50.672;7.164;2022-09-01T09:24:11;101105.94;;;23.09;50.06
38054;BME280;23859;50.672;7.164;2022-09-01T09:26:38;101111.25;;;22.90;51.54
38054;BME280;23859;50.672;7.164;2022-09-01T09:29:04;101016.69;;;22.55;49.47
38054;BME280;23859;50.672;7.164;2022-09-01T09:31:33;101108.91;;;22.74;51.29
38054;BME280;23859;50.672;7.164;2022-09-01T09:34:00;101102.19;;;23.04;50.21
38054;BME280;23859;50.672;7.164;2022-09-01T09:36:35;101100.56;;;23.16;50.94
38054;BME280;23859;50.672;7.164;2022-09-01T09:39:10;101101.59;;;23.08;50.06
38054;BME280;23859;50.672;7.164;2022-09-01T09:41:39;101084.72;;;23.32;50.67
38054;BME280;23859;50.672;7.164;2022-09-01T09:44:30;101084.94;;;23.37;50.79
38054;BME280;23859;50.672;7.164;2022-09-01T09:46:57;101083.91;;;23.57;50.52
38054;BME280;23859;50.672;7.164;2022-09-01T09:49:25;101085.16;;;23.68;49.03
38054;BME280;23859;50.672;7.164;2022-09-01T09:52:16;101079.66;;;23.16;49.50
38054;BME280;23859;50.672;7.164;2022-09-01T09:55:22;101070.94;;;23.59;49.67
38054;BME280;23859;50.672;7.164;2022-09-01T09:57:50;101069.94;;;23.80;48.83
38054;BME280;23859;50.672;7.164;2022-09-01T10:00:22;101070.56;;;23.82;49.56
38054;BME280;23859;50.672;7.164;2022-09-01T10:03:07;101068.88;;;24.00;48.49
38054;BME280;23859;50.672;7.164;2022-09-01T10:08:00;101064.25;;;24.14;48.41
38054;BME280;23859;50.672;7.164;2022-09-01T10:10:41;101064.66;;;24.11;49.35
38054;BME280;23859;50.672;7.164;2022-09-01T10:13:17;101067.63;;;23.90;48.71
38054;BME280;23859;50.672;7.164;2022-09-01T10:15:48;101056.50;;;24.23;48.08
38054;BME280;23859;50.672;7.164;2022-09-01T10:18:17;101062.41;;;24.01;47.72
38054;BME280;23859;50.672;7.164;2022-09-01T10:23:42;101045.44;;;24.75;47.33
38054;BME280;23859;50.672;7.164;2022-09-01T10:26:15;101039.25;;;24.99;45.60
38054;BME280;23859;50.672;7.164;2022-09-01T10:28:59;101020.63;;;25.02;47.16
38054;BME280;23859;50.672;7.164;2022-09-01T10:31:26;101042.72;;;24.75;46.76
38054;BME280;23859;50.672;7.164;2022-09-01T10:33:54;101045.00;;;24.84;46.97
38054;BME280;23859;50.672;7.164;2022-09-01T10:36:20;101035.69;;;24.98;45.84
38054;BME280;23859;50.672;7.164;2022-09-01T10:38:47;101035.03;;;25.03;46.45
38054;BME280;23859;50.672;7.164;2022-09-01T10:44:09;101041.31;;;25.65;45.11
38054;BME280;23859;50.672;7.164;2022-09-01T10:49:02;101028.97;;;25.38;45.13
38054;BME280;23859;50.672;7.164;2022-09-01T10:51:42;101026.25;;;25.62;43.73
38054;BME280;23859;50.672;7.164;2022-09-01T10:59:49;101011.50;;;25.46;42.95
38054;BME280;23859;50.672;7.164;2022-09-01T11:02:19;101020.34;;;25.72;42.00
38054;BME280;23859;50.672;7.164;2022-09-01T11:15:40;101023.25;;;26.84;40.84
38054;BME280;23859;50.672;7.164;2022-09-01T11:18:30;101024.00;;;26.44;41.91
38054;BME280;23859;50.672;7.164;2022-09-01T11:21:33;101029.31;;;26.39;43.56
38054;BME280;23859;50.672;7.164;2022-09-01T11:27:03;101018.47;;;26.80;41.41
38054;BME280;23859;50.672;7.164;2022-09-01T11:29:49;101002.09;;;26.97;41.33
38054;BME280;23859;50.672;7.164;2022-09-01T11:32:17;101014.03;;;26.67;42.01
38054;BME280;23859;50.672;7.164;2022-09-01T11:34:45;101019.63;;;26.72;41.88
38054;BME280;23859;50.672;7.164;2022-09-01T11:37:16;101013.31;;;26.42;41.92
38054;BME280;23859;50.672;7.164;2022-09-01T11:39:53;101020.09;;;25.73;43.01
38054;BME280;23859;50.672;7.164;2022-09-01T11:42:38;101023.09;;;25.41;44.23
38054;BME280;23859;50.672;7.164;2022-09-01T11:45:20;101020.53;;;25.70;43.38
38054;BME280;23859;50.672;7.164;2022-09-01T11:48:04;101019.06;;;25.19;44.15
38054;BME280;23859;50.672;7.164;2022-09-01T11:50:34;101021.00;;;24.69;45.50
38054;BME280;23859;50.672;7.164;2022-09-01T11:53:13;101018.50;;;24.67;45.59
38054;BME280;23859;50.672;7.164;2022-09-01T11:55:43;101015.25;;;24.46;45.11
38054;BME280;23859;50.672;7.164;2022-09-01T11:58:12;101036.88;;;24.15;46.32
38054;BME280;23859;50.672;7.164;2022-09-01T12:00:43;101016.63;;;24.05;46.75
38054;BME280;23859;50.672;7.164;2022-09-01T12:03:22;101026.41;;;24.18;47.58
38054;BME280;23859;50.672;7.164;2022-09-01T12:05:53;101013.03;;;24.11;47.37
38054;BME280;23859;50.672;7.164;2022-09-01T12:08:26;101014.53;;;24.07;47.10
38054;BME280;23859;50.672;7.164;2022-09-01T12:11:10;101010.16;;;23.99;48.02
38054;BME280;23859;50.672;7.164;2022-09-01T12:13:39;101006.16;;;24.15;47.30
38054;BME280;23859;50.672;7.164;2022-09-01T12:16:08;100997.81;;;23.97;48.07
38054;BME280;23859;50.672;7.164;2022-09-01T12:18:42;100992.31;;;24.22;47.95
38054;BME280;23859;50.672;7.164;2022-09-01T12:21:24;100989.13;;;24.82;45.84
38054;BME280;23859;50.672;7.164;2022-09-01T12:23:51;100984.09;;;25.89;43.68
38054;BME280;23859;50.672;7.164;2022-09-01T12:26:22;100978.00;;;26.77;42.03
38054;BME280;23859;50.672;7.164;2022-09-01T12:28:49;100971.81;;;27.62;41.42
38054;BME280;23859;50.672;7.164;2022-09-01T12:31:21;100981.41;;;26.43;41.47
38054;BME280;23859;50.672;7.164;2022-09-01T12:33:49;100972.38;;;26.24;42.60
38054;BME280;23859;50.672;7.164;2022-09-01T12:36:27;100982.34;;;25.52;42.92
38054;BME280;23859;50.672;7.164;2022-09-01T12:38:56;100976.34;;;25.20;44.47
38054;BME280;23859;50.672;7.164;2022-09-01T12:41:30;100976.00;;;25.10;44.15
38054;BME280;23859;50.672;7.164;2022-09-01T12:44:27;100973.56;;;24.95;44.11
38054;BME280;23859;50.672;7.164;2022-09-01T12:47:08;100974.38;;;24.96;45.08
38054;BME280;23859;50.672;7.164;2022-09-01T12:49:46;100975.22;;;24.96;44.07
38054;BME280;23859;50.672;7.164;2022-09-01T12:54:49;100973.72;;;25.00;43.89
38054;BME280;23859;50.672;7.164;2022-09-01T13:00:15;100963.28;;;25.28;42.36
38054;BME280;23859;50.672;7.164;2022-09-01T13:05:30;100957.78;;;25.10;42.80
38054;BME280;23859;50.672;7.164;2022-09-01T13:08:01;100960.41;;;24.92;42.67
38054;BME280;23859;50.672;7.164;2022-09-01T13:10:37;100953.13;;;24.86;42.77
38054;BME280;23859;50.672;7.164;2022-09-01T13:13:05;100953.94;;;24.87;43.45
38054;BME280;23859;50.672;7.164;2022-09-01T13:15:31;100947.09;;;25.09;43.01
38054;BME280;23859;50.672;7.164;2022-09-01T13:17:58;100941.31;;;25.48;42.63
38054;BME280;23859;50.672;7.164;2022-09-01T13:20:24;100934.91;;;25.60;41.98
38054;BME280;23859;50.672;7.164;2022-09-01T13:22:50;100931.41;;;25.77;41.28
38054;BME280;23859;50.672;7.164;2022-09-01T13:25:18;100939.56;;;25.77;40.41
38054;BME280;23859;50.672;7.164;2022-09-01T13:27:46;100928.16;;;26.05;40.54
38054;BME280;23859;50.672;7.164;2022-09-01T13:30:19;100921.84;;;26.04;40.08
38054;BME280;23859;50.672;7.164;2022-09-01T13:32:46;100931.25;;;25.90;40.81
38054;BME280;23859;50.672;7.164;2022-09-01T13:35:15;100919.59;;;25.83;40.21
38054;BME280;23859;50.672;7.164;2022-09-01T13:37:41;100917.16;;;26.11;40.18
38054;BME280;23859;50.672;7.164;2022-09-01T13:40:08;100901.00;;;26.27;39.56
38054;BME280;23859;50.672;7.164;2022-09-01T13:42:40;100903.81;;;26.21;38.99
38054;BME280;23859;50.672;7.164;2022-09-01T13:45:07;100908.31;;;25.98;39.42
38054;BME280;23859;50.672;7.164;2022-09-01T13:47:34;100912.34;;;26.13;39.49
38054;BME280;23859;50.672;7.164;2022-09-01T13:50:00;100904.91;;;26.49;39.53
38054;BME280;23859;50.672;7.164;2022-09-01T13:52:26;100894.84;;;26.50;37.15
38054;BME280;23859;50.672;7.164;2022-09-01T13:54:52;100896.88;;;26.54;37.69
38054;BME280;23859;50.672;7.164;2022-09-01T13:57:18;100892.59;;;26.88;37.61
38054;BME280;23859;50.672;7.164;2022-09-01T13:59:44;100901.41;;;26.60;37.71
38054;BME280;23859;50.672;7.164;2022-09-01T14:02:10;100906.22;;;26.47;38.96